sensor_id;sensor_type;location;lat;lon;timestamp;P1;durP1;ratioP1;P2;durP2;ratioP2
53062;SDS011;40529;52.172;10.548;2022-12-18T00:01:19;59.50;;;29.33;;
53062;SDS011;40529;52.172;10.548;2022-12-18T00:03:46;57.15;;;28.98;;
53062;SDS011;40529;52.172;10.548;2022-12-18T00:06:12;59.78;;;28.80;;
53062;SDS011;40529;52.172;10.548;2022-12-18T00:08:39;58.10;;;29.33;;
53062;SDS011;40529;52.172;10.548;2022-12-18T00:11:06;59.05;;;28.95;;
53062;SDS011;40529;52.172;10.548;2022-12-18T00:13:32;64.65;;;30.52;;
53062;SDS011;40529;52.172;10.548;2022-12-18T00:16:02;59.58;;;30.20;;
53062;SDS011;40529;52.172;10.548;2022-12-18T00:18:29;62.17;;;30.23;;
53062;SDS011;40529;52.172;10.548;2022-12-18T00:20:58;60.13;;;30.33;;
53062;SDS011;40529;52.172;10.548;2022-12-18T00:23:24;63.60;;;30.45;;
53062;SDS011;40529;52.172;10.548;2022-12-18T00:25:51;61.22;;;31.17;;
53062;SDS011;40529;52.172;10.548;2022-12-18T00:28:17;63.22;;;30.33;;
53062;SDS011;40529;52.172;10.548;2022-12-18T00:30:43;59.40;;;29.35;;
53062;SDS011;40529;52.172;10.548;2022-12-18T00:33:09;61.70;;;28.98;;
53062;SDS011;40529;52.172;10.548;2022-12-18T00:35:35;56.55;;;28.73;;
53062;SDS011;40529;52.172;10.548;2022-12-18T00:38:01;56.50;;;28.83;;
53062;SDS011;40529;52.172;10.548;2022-12-18T00:40:27;57.40;;;29.95;;
53062;SDS011;40529;52.172;10.548;2022-12-18T00:42:53;50.92;;;27.17;;
53062;SDS011;40529;52.172;10.548;2022-12-18T00:45:23;54.20;;;27.98;;
53062;SDS011;40529;52.172;10.548;2022-12-18T00:47:50;53.03;;;26.85;;
53062;SDS011;40529;52.172;10.548;2022-12-18T00:50:16;53.92;;;27.48;;
53062;SDS011;40529;52.172;10.548;2022-12-18T00:52:42;52.58;;;27.10;;
53062;SDS011;40529;52.172;10.548;2022-12-18T00:55:08;56.88;;;27.65;;
53062;SDS011;40529;52.172;10.548;2022-12-18T00:57:35;45.97;;;24.05;;
53062;SDS011;40529;52.172;10.548;2022-12-18T01:00:01;55.63;;;27.55;;
53062;SDS011;40529;52.172;10.548;2022-12-18T01:02:27;51.28;;;25.60;;
53062;SDS011;40529;52.172;10.548;2022-12-18T01:04:53;52.97;;;27.40;;
53062;SDS011;40529;52.172;10.548;2022-12-18T01:07:19;52.60;;;27.58;;
53062;SDS011;40529;52.172;10.548;2022-12-18T01:09:46;52.38;;;26.83;;
53062;SDS011;40529;52.172;10.548;2022-12-18T01:12:12;49.33;;;26.35;;
53062;SDS011;40529;52.172;10.548;2022-12-18T01:14:38;52.05;;;26.23;;
53062;SDS011;40529;52.172;10.548;2022-12-18T01:17:04;55.30;;;26.27;;
53062;SDS011;40529;52.172;10.548;2022-12-18T01:19:31;53.47;;;26.42;;
53062;SDS011;40529;52.172;10.548;2022-12-18T01:21:57;58.42;;;29.38;;
53062;SDS011;40529;52.172;10.548;2022-12-18T01:24:23;57.40;;;28.52;;
53062;SDS011;40529;52.172;10.548;2022-12-18T01:26:49;52.72;;;26.60;;
53062;SDS011;40529;52.172;10.548;2022-12-18T01:29:15;53.95;;;27.00;;
53062;SDS011;40529;52.172;10.548;2022-12-18T01:31:41;53.08;;;26.88;;
53062;SDS011;40529;52.172;10.548;2022-12-18T01:34:08;50.70;;;27.70;;
53062;SDS011;40529;52.172;10.548;2022-12-18T01:36:36;54.35;;;26.33;;
53062;SDS011;40529;52.172;10.548;2022-12-18T01:39:03;55.15;;;28.25;;
53062;SDS011;40529;52.172;10.548;2022-12-18T01:41:30;56.80;;;27.95;;
53062;SDS011;40529;52.172;10.548;2022-12-18T01:47:01;56.90;;;26.13;;
53062;SDS011;40529;52.172;10.548;2022-12-18T01:49:27;57.22;;;28.25;;
53062;SDS011;40529;52.172;10.548;2022-12-18T01:51:53;54.88;;;26.65;;
53062;SDS011;40529;52.172;10.548;2022-12-18T01:54:19;58.42;;;27.30;;
53062;SDS011;40529;52.172;10.548;2022-12-18T01:56:45;58.05;;;27.30;;
53062;SDS011;40529;52.172;10.548;2022-12-18T01:59:11;53.00;;;26.42;;
53062;SDS011;40529;52.172;10.548;2022-12-18T02:01:37;54.72;;;28.25;;
53062;SDS011;40529;52.172;10.548;2022-12-18T02:04:20;53.25;;;27.13;;
53062;SDS011;40529;52.172;10.548;2022-12-18T02:06:46;54.15;;;25.88;;
53062;SDS011;40529;52.172;10.548;2022-12-18T02:09:18;45.17;;;20.97;;
53062;SDS011;40529;52.172;10.548;2022-12-18T02:22:07;53.63;;;26.23;;
53062;SDS011;40529;52.172;10.548;2022-12-18T02:24:42;54.00;;;26.60;;
53062;SDS011;40529;52.172;10.548;2022-12-18T02:27:09;53.60;;;26.02;;
53062;SDS011;40529;52.172;10.548;2022-12-18T02:32:33;55.78;;;27.85;;
53062;SDS011;40529;52.172;10.548;2022-12-18T02:35:01;61.03;;;28.40;;
53062;SDS011;40529;52.172;10.548;2022-12-18T02:37:28;57.80;;;27.45;;
53062;SDS011;40529;52.172;10.548;2022-12-18T02:39:56;59.08;;;27.98;;
53062;SDS011;40529;52.172;10.548;2022-12-18T02:42:22;60.00;;;29.45;;
53062;SDS011;40529;52.172;10.548;2022-12-18T02:44:49;65.03;;;28.38;;
53062;SDS011;40529;52.172;10.548;2022-12-18T02:47:23;61.10;;;28.38;;
53062;SDS011;40529;52.172;10.548;2022-12-18T03:00:10;66.10;;;30.30;;
53062;SDS011;40529;52.172;10.548;2022-12-18T03:07:35;53.08;;;27.75;;
53062;SDS011;40529;52.172;10.548;2022-12-18T03:10:03;59.10;;;26.83;;
53062;SDS011;40529;52.172;10.548;2022-12-18T03:12:34;54.42;;;26.58;;
53062;SDS011;40529;52.172;10.548;2022-12-18T03:17:27;55.28;;;26.80;;
53062;SDS011;40529;52.172;10.548;2022-12-18T03:19:54;57.35;;;26.23;;
53062;SDS011;40529;52.172;10.548;2022-12-18T03:22:22;51.97;;;25.92;;
53062;SDS011;40529;52.172;10.548;2022-12-18T03:24:49;57.35;;;27.30;;
53062;SDS011;40529;52.172;10.548;2022-12-18T03:27:17;57.15;;;27.52;;
53062;SDS011;40529;52.172;10.548;2022-12-18T03:29:45;53.15;;;25.98;;
53062;SDS011;40529;52.172;10.548;2022-12-18T03:32:19;60.35;;;26.05;;
53062;SDS011;40529;52.172;10.548;2022-12-18T03:34:47;53.30;;;26.58;;
53062;SDS011;40529;52.172;10.548;2022-12-18T03:37:14;53.78;;;25.70;;
53062;SDS011;40529;52.172;10.548;2022-12-18T03:39:41;53.00;;;26.48;;
53062;SDS011;40529;52.172;10.548;2022-12-18T03:44:44;55.08;;;25.55;;
53062;SDS011;40529;52.172;10.548;2022-12-18T03:47:30;50.88;;;24.77;;
53062;SDS011;40529;52.172;10.548;2022-12-18T03:52:42;53.17;;;26.40;;
53062;SDS011;40529;52.172;10.548;2022-12-18T03:55:11;54.10;;;25.63;;
53062;SDS011;40529;52.172;10.548;2022-12-18T03:57:37;50.20;;;24.98;;
53062;SDS011;40529;52.172;10.548;2022-12-18T04:00:06;55.17;;;25.55;;
53062;SDS011;40529;52.172;10.548;2022-12-18T04:02:32;57.20;;;26.83;;
53062;SDS011;40529;52.172;10.548;2022-12-18T04:05:00;57.67;;;26.35;;
53062;SDS011;40529;52.172;10.548;2022-12-18T04:07:28;53.78;;;25.42;;
53062;SDS011;40529;52.172;10.548;2022-12-18T04:09:54;52.80;;;25.10;;
53062;SDS011;40529;52.172;10.548;2022-12-18T04:12:24;51.60;;;25.45;;
53062;SDS011;40529;52.172;10.548;2022-12-18T04:14:51;51.55;;;26.75;;
53062;SDS011;40529;52.172;10.548;2022-12-18T04:17:17;46.70;;;24.60;;
53062;SDS011;40529;52.172;10.548;2022-12-18T04:19:43;49.33;;;24.33;;
53062;SDS011;40529;52.172;10.548;2022-12-18T04:22:09;47.42;;;25.10;;
53062;SDS011;40529;52.172;10.548;2022-12-18T04:24:36;54.55;;;26.27;;
53062;SDS011;40529;52.172;10.548;2022-12-18T04:27:02;52.47;;;24.80;;
53062;SDS011;40529;52.172;10.548;2022-12-18T04:29:28;49.15;;;23.88;;
53062;SDS011;40529;52.172;10.548;2022-12-18T04:31:54;49.78;;;24.65;;
53062;SDS011;40529;52.172;10.548;2022-12-18T04:34:21;54.08;;;26.02;;
53062;SDS011;40529;52.172;10.548;2022-12-18T04:36:47;51.85;;;24.48;;
53062;SDS011;40529;52.172;10.548;2022-12-18T04:39:13;53.35;;;25.00;;
53062;SDS011;40529;52.172;10.548;2022-12-18T04:41:39;54.30;;;25.20;;
53062;SDS011;40529;52.172;10.548;2022-12-18T04:44:06;54.60;;;25.85;;
53062;SDS011;40529;52.172;10.548;2022-12-18T04:46:32;58.22;;;26.92;;
53062;SDS011;40529;52.172;10.548;2022-12-18T04:48:58;53.85;;;25.77;;
53062;SDS011;40529;52.172;10.548;2022-12-18T04:51:24;54.30;;;26.40;;
53062;SDS011;40529;52.172;10.548;2022-12-18T04:53:50;55.97;;;26.63;;
53062;SDS011;40529;52.172;10.548;2022-12-18T04:56:16;53.50;;;24.83;;
53062;SDS011;40529;52.172;10.548;2022-12-18T04:58:43;59.72;;;24.83;;
53062;SDS011;40529;52.172;10.548;2022-12-18T05:01:10;54.45;;;25.15;;
53062;SDS011;40529;52.172;10.548;2022-12-18T05:03:37;54.85;;;25.25;;
53062;SDS011;40529;52.172;10.548;2022-12-18T05:06:04;52.88;;;25.00;;
53062;SDS011;40529;52.172;10.548;2022-12-18T05:08:30;50.67;;;24.75;;
53062;SDS011;40529;52.172;10.548;2022-12-18T05:11:00;55.97;;;25.77;;
53062;SDS011;40529;52.172;10.548;2022-12-18T05:13:26;52.97;;;25.48;;
53062;SDS011;40529;52.172;10.548;2022-12-18T05:15:52;53.03;;;25.25;;
53062;SDS011;40529;52.172;10.548;2022-12-18T05:18:19;48.03;;;24.42;;
53062;SDS011;40529;52.172;10.548;2022-12-18T05:20:45;59.83;;;25.70;;
53062;SDS011;40529;52.172;10.548;2022-12-18T05:23:11;59.63;;;27.13;;
53062;SDS011;40529;52.172;10.548;2022-12-18T05:25:37;53.72;;;25.05;;
53062;SDS011;40529;52.172;10.548;2022-12-18T05:28:03;56.85;;;26.27;;
53062;SDS011;40529;52.172;10.548;2022-12-18T05:30:29;51.80;;;25.50;;
53062;SDS011;40529;52.172;10.548;2022-12-18T05:32:55;50.70;;;25.15;;
53062;SDS011;40529;52.172;10.548;2022-12-18T05:35:21;59.15;;;25.10;;
53062;SDS011;40529;52.172;10.548;2022-12-18T05:37:47;51.85;;;24.98;;
53062;SDS011;40529;52.172;10.548;2022-12-18T05:40:13;58.28;;;26.08;;
53062;SDS011;40529;52.172;10.548;2022-12-18T05:42:39;54.10;;;25.92;;
53062;SDS011;40529;52.172;10.548;2022-12-18T05:45:06;60.53;;;26.10;;
53062;SDS011;40529;52.172;10.548;2022-12-18T05:47:32;54.85;;;25.35;;
53062;SDS011;40529;52.172;10.548;2022-12-18T05:49:58;56.85;;;26.63;;
53062;SDS011;40529;52.172;10.548;2022-12-18T05:52:24;59.72;;;27.13;;
53062;SDS011;40529;52.172;10.548;2022-12-18T05:54:50;54.20;;;24.17;;
53062;SDS011;40529;52.172;10.548;2022-12-18T05:57:16;57.80;;;26.48;;
53062;SDS011;40529;52.172;10.548;2022-12-18T05:59:42;62.80;;;26.63;;
53062;SDS011;40529;52.172;10.548;2022-12-18T06:02:08;52.40;;;25.90;;
53062;SDS011;40529;52.172;10.548;2022-12-18T06:04:34;50.85;;;23.67;;
53062;SDS011;40529;52.172;10.548;2022-12-18T06:07:00;53.95;;;26.15;;
53062;SDS011;40529;52.172;10.548;2022-12-18T06:09:28;49.10;;;24.13;;
53062;SDS011;40529;52.172;10.548;2022-12-18T06:11:54;53.97;;;25.50;;
53062;SDS011;40529;52.172;10.548;2022-12-18T06:14:20;51.67;;;24.88;;
53062;SDS011;40529;52.172;10.548;2022-12-18T06:16:46;51.05;;;24.88;;
53062;SDS011;40529;52.172;10.548;2022-12-18T06:19:14;50.97;;;23.77;;
53062;SDS011;40529;52.172;10.548;2022-12-18T06:21:40;47.60;;;23.48;;
53062;SDS011;40529;52.172;10.548;2022-12-18T06:24:07;49.35;;;24.25;;
53062;SDS011;40529;52.172;10.548;2022-12-18T06:26:33;49.30;;;24.70;;
53062;SDS011;40529;52.172;10.548;2022-12-18T06:28:59;53.42;;;24.58;;
53062;SDS011;40529;52.172;10.548;2022-12-18T06:31:25;54.60;;;24.58;;
53062;SDS011;40529;52.172;10.548;2022-12-18T06:33:51;55.33;;;25.52;;
53062;SDS011;40529;52.172;10.548;2022-12-18T06:36:17;55.92;;;25.00;;
53062;SDS011;40529;52.172;10.548;2022-12-18T06:38:44;51.72;;;23.92;;
53062;SDS011;40529;52.172;10.548;2022-12-18T06:41:11;53.28;;;24.27;;
53062;SDS011;40529;52.172;10.548;2022-12-18T06:43:38;52.22;;;24.95;;
53062;SDS011;40529;52.172;10.548;2022-12-18T06:46:04;67.35;;;29.88;;
53062;SDS011;40529;52.172;10.548;2022-12-18T06:48:31;64.75;;;28.15;;
53062;SDS011;40529;52.172;10.548;2022-12-18T06:50:57;53.83;;;24.95;;
53062;SDS011;40529;52.172;10.548;2022-12-18T06:53:24;50.42;;;23.70;;
53062;SDS011;40529;52.172;10.548;2022-12-18T06:55:50;60.33;;;26.85;;
53062;SDS011;40529;52.172;10.548;2022-12-18T06:58:16;56.92;;;26.05;;
53062;SDS011;40529;52.172;10.548;2022-12-18T07:00:42;55.28;;;23.65;;
53062;SDS011;40529;52.172;10.548;2022-12-18T07:03:08;51.95;;;24.00;;
53062;SDS011;40529;52.172;10.548;2022-12-18T07:05:34;50.17;;;23.90;;
53062;SDS011;40529;52.172;10.548;2022-12-18T07:08:00;55.30;;;24.35;;
53062;SDS011;40529;52.172;10.548;2022-12-18T07:10:26;51.90;;;23.27;;
53062;SDS011;40529;52.172;10.548;2022-12-18T07:12:52;51.13;;;23.40;;
53062;SDS011;40529;52.172;10.548;2022-12-18T07:15:18;52.85;;;24.60;;
53062;SDS011;40529;52.172;10.548;2022-12-18T07:17:44;53.67;;;25.10;;
53062;SDS011;40529;52.172;10.548;2022-12-18T07:20:10;52.85;;;25.98;;
53062;SDS011;40529;52.172;10.548;2022-12-18T07:22:36;49.75;;;25.02;;
53062;SDS011;40529;52.172;10.548;2022-12-18T07:25:03;55.83;;;24.65;;
53062;SDS011;40529;52.172;10.548;2022-12-18T07:27:29;55.60;;;25.33;;
53062;SDS011;40529;52.172;10.548;2022-12-18T07:29:55;53.80;;;23.60;;
53062;SDS011;40529;52.172;10.548;2022-12-18T07:32:22;61.58;;;26.13;;
53062;SDS011;40529;52.172;10.548;2022-12-18T07:34:48;60.75;;;25.90;;
53062;SDS011;40529;52.172;10.548;2022-12-18T07:37:14;53.60;;;24.55;;
53062;SDS011;40529;52.172;10.548;2022-12-18T07:39:40;52.72;;;24.63;;
53062;SDS011;40529;52.172;10.548;2022-12-18T07:42:06;56.72;;;25.77;;
53062;SDS011;40529;52.172;10.548;2022-12-18T07:44:50;60.95;;;24.95;;
53062;SDS011;40529;52.172;10.548;2022-12-18T07:47:16;55.13;;;23.95;;
53062;SDS011;40529;52.172;10.548;2022-12-18T07:49:43;53.45;;;24.30;;
53062;SDS011;40529;52.172;10.548;2022-12-18T07:52:09;59.25;;;26.00;;
53062;SDS011;40529;52.172;10.548;2022-12-18T07:54:37;64.60;;;27.52;;
53062;SDS011;40529;52.172;10.548;2022-12-18T07:57:03;59.38;;;26.33;;
53062;SDS011;40529;52.172;10.548;2022-12-18T07:59:29;57.78;;;25.63;;
53062;SDS011;40529;52.172;10.548;2022-12-18T08:01:55;58.78;;;26.65;;
53062;SDS011;40529;52.172;10.548;2022-12-18T08:04:21;60.38;;;26.70;;
53062;SDS011;40529;52.172;10.548;2022-12-18T08:06:48;62.85;;;25.73;;
53062;SDS011;40529;52.172;10.548;2022-12-18T08:09:14;59.38;;;25.00;;
53062;SDS011;40529;52.172;10.548;2022-12-18T08:11:40;61.72;;;26.80;;
53062;SDS011;40529;52.172;10.548;2022-12-18T08:14:06;53.10;;;24.30;;
53062;SDS011;40529;52.172;10.548;2022-12-18T08:16:32;54.70;;;23.65;;
53062;SDS011;40529;52.172;10.548;2022-12-18T08:18:58;57.58;;;25.10;;
53062;SDS011;40529;52.172;10.548;2022-12-18T08:21:25;70.82;;;28.95;;
53062;SDS011;40529;52.172;10.548;2022-12-18T08:23:52;59.70;;;27.23;;
53062;SDS011;40529;52.172;10.548;2022-12-18T08:26:19;61.80;;;25.40;;
53062;SDS011;40529;52.172;10.548;2022-12-18T08:28:45;57.58;;;23.65;;
53062;SDS011;40529;52.172;10.548;2022-12-18T08:31:11;57.75;;;24.83;;
53062;SDS011;40529;52.172;10.548;2022-12-18T08:33:38;58.45;;;24.98;;
53062;SDS011;40529;52.172;10.548;2022-12-18T08:36:04;63.35;;;25.00;;
53062;SDS011;40529;52.172;10.548;2022-12-18T08:38:33;56.83;;;25.00;;
53062;SDS011;40529;52.172;10.548;2022-12-18T08:41:06;62.08;;;25.08;;
53062;SDS011;40529;52.172;10.548;2022-12-18T08:43:33;55.45;;;23.98;;
53062;SDS011;40529;52.172;10.548;2022-12-18T08:46:18;61.88;;;24.98;;
53062;SDS011;40529;52.172;10.548;2022-12-18T08:48:45;60.85;;;25.48;;
53062;SDS011;40529;52.172;10.548;2022-12-18T08:51:11;59.97;;;25.50;;
53062;SDS011;40529;52.172;10.548;2022-12-18T08:53:37;57.67;;;26.60;;
53062;SDS011;40529;52.172;10.548;2022-12-18T08:56:04;61.40;;;26.00;;
53062;SDS011;40529;52.172;10.548;2022-12-18T08:58:30;57.55;;;26.75;;
53062;SDS011;40529;52.172;10.548;2022-12-18T09:01:03;64.45;;;26.60;;
53062;SDS011;40529;52.172;10.548;2022-12-18T09:03:29;59.25;;;26.20;;
53062;SDS011;40529;52.172;10.548;2022-12-18T09:05:56;63.00;;;25.88;;
53062;SDS011;40529;52.172;10.548;2022-12-18T09:08:22;64.72;;;27.27;;
53062;SDS011;40529;52.172;10.548;2022-12-18T09:10:48;58.72;;;26.65;;
53062;SDS011;40529;52.172;10.548;2022-12-18T09:13:15;62.50;;;27.23;;
53062;SDS011;40529;52.172;10.548;2022-12-18T09:15:45;56.10;;;25.92;;
53062;SDS011;40529;52.172;10.548;2022-12-18T09:18:12;65.20;;;24.23;;
53062;SDS011;40529;52.172;10.548;2022-12-18T09:20:38;61.15;;;27.20;;
53062;SDS011;40529;52.172;10.548;2022-12-18T09:23:05;60.55;;;26.38;;
53062;SDS011;40529;52.172;10.548;2022-12-18T09:25:31;63.22;;;25.52;;
53062;SDS011;40529;52.172;10.548;2022-12-18T09:28:05;62.47;;;26.20;;
53062;SDS011;40529;52.172;10.548;2022-12-18T09:30:31;55.97;;;23.60;;
53062;SDS011;40529;52.172;10.548;2022-12-18T09:32:59;54.53;;;25.70;;
53062;SDS011;40529;52.172;10.548;2022-12-18T09:35:25;58.55;;;26.73;;
53062;SDS011;40529;52.172;10.548;2022-12-18T09:37:52;56.17;;;25.40;;
53062;SDS011;40529;52.172;10.548;2022-12-18T09:40:20;67.82;;;26.65;;
53062;SDS011;40529;52.172;10.548;2022-12-18T09:42:48;59.08;;;25.65;;
53062;SDS011;40529;52.172;10.548;2022-12-18T09:45:17;58.05;;;25.25;;
53062;SDS011;40529;52.172;10.548;2022-12-18T09:47:43;62.53;;;26.30;;
53062;SDS011;40529;52.172;10.548;2022-12-18T09:50:22;57.63;;;25.98;;
53062;SDS011;40529;52.172;10.548;2022-12-18T09:52:50;61.78;;;25.75;;
53062;SDS011;40529;52.172;10.548;2022-12-18T09:57:57;60.05;;;25.55;;
53062;SDS011;40529;52.172;10.548;2022-12-18T10:00:25;56.10;;;25.40;;
53062;SDS011;40529;52.172;10.548;2022-12-18T10:02:51;61.85;;;25.55;;
53062;SDS011;40529;52.172;10.548;2022-12-18T10:05:38;57.08;;;24.88;;
53062;SDS011;40529;52.172;10.548;2022-12-18T10:08:24;55.05;;;25.55;;
53062;SDS011;40529;52.172;10.548;2022-12-18T10:10:53;60.22;;;24.65;;
53062;SDS011;40529;52.172;10.548;2022-12-18T10:20:56;56.97;;;26.70;;
53062;SDS011;40529;52.172;10.548;2022-12-18T10:28:20;60.47;;;26.17;;
53062;SDS011;40529;52.172;10.548;2022-12-18T10:30:46;58.38;;;26.13;;
53062;SDS011;40529;52.172;10.548;2022-12-18T10:33:17;57.15;;;26.45;;
53062;SDS011;40529;52.172;10.548;2022-12-18T10:35:43;66.40;;;26.88;;
53062;SDS011;40529;52.172;10.548;2022-12-18T10:43:15;62.92;;;26.33;;
53062;SDS011;40529;52.172;10.548;2022-12-18T10:45:42;59.55;;;25.80;;
53062;SDS011;40529;52.172;10.548;2022-12-18T10:48:17;54.22;;;25.25;;
53062;SDS011;40529;52.172;10.548;2022-12-18T10:50:45;58.03;;;25.20;;
53062;SDS011;40529;52.172;10.548;2022-12-18T10:53:13;56.38;;;25.42;;
53062;SDS011;40529;52.172;10.548;2022-12-18T10:55:41;55.40;;;26.45;;
53062;SDS011;40529;52.172;10.548;2022-12-18T10:58:15;54.90;;;25.55;;
53062;SDS011;40529;52.172;10.548;2022-12-18T11:00:42;55.65;;;26.08;;
53062;SDS011;40529;52.172;10.548;2022-12-18T11:03:59;50.20;;;24.05;;
53062;SDS011;40529;52.172;10.548;2022-12-18T11:06:02;54.70;;;23.90;;
53062;SDS011;40529;52.172;10.548;2022-12-18T11:08:29;53.80;;;25.77;;
53062;SDS011;40529;52.172;10.548;2022-12-18T11:10:55;53.80;;;24.05;;
53062;SDS011;40529;52.172;10.548;2022-12-18T11:13:22;48.50;;;25.08;;
53062;SDS011;40529;52.172;10.548;2022-12-18T11:15:49;51.13;;;23.98;;
53062;SDS011;40529;52.172;10.548;2022-12-18T11:18:25;50.00;;;24.80;;
53062;SDS011;40529;52.172;10.548;2022-12-18T11:20:56;52.15;;;24.25;;
53062;SDS011;40529;52.172;10.548;2022-12-18T11:23:23;44.63;;;22.02;;
53062;SDS011;40529;52.172;10.548;2022-12-18T11:25:53;54.28;;;23.77;;
53062;SDS011;40529;52.172;10.548;2022-12-18T11:33:41;57.00;;;23.83;;
53062;SDS011;40529;52.172;10.548;2022-12-18T11:36:08;47.40;;;22.77;;
53062;SDS011;40529;52.172;10.548;2022-12-18T11:38:36;53.08;;;23.98;;
53062;SDS011;40529;52.172;10.548;2022-12-18T11:41:09;47.65;;;22.52;;
53062;SDS011;40529;52.172;10.548;2022-12-18T11:44:00;52.58;;;22.75;;
53062;SDS011;40529;52.172;10.548;2022-12-18T11:46:32;55.60;;;24.40;;
53062;SDS011;40529;52.172;10.548;2022-12-18T11:49:08;50.42;;;24.75;;
53062;SDS011;40529;52.172;10.548;2022-12-18T11:54:23;51.22;;;24.15;;
53062;SDS011;40529;52.172;10.548;2022-12-18T11:56:50;48.95;;;25.30;;
53062;SDS011;40529;52.172;10.548;2022-12-18T12:01:51;48.92;;;23.63;;
53062;SDS011;40529;52.172;10.548;2022-12-18T12:30:16;39.35;;;20.42;;
53062;SDS011;40529;52.172;10.548;2022-12-18T12:38:23;32.13;;;18.05;;
53062;SDS011;40529;52.172;10.548;2022-12-18T12:40:54;40.10;;;20.20;;
53062;SDS011;40529;52.172;10.548;2022-12-18T12:48:35;33.22;;;18.13;;
53062;SDS011;40529;52.172;10.548;2022-12-18T12:51:03;40.15;;;19.38;;
53062;SDS011;40529;52.172;10.548;2022-12-18T12:53:31;33.15;;;17.08;;
53062;SDS011;40529;52.172;10.548;2022-12-18T12:55:58;32.20;;;17.27;;
53062;SDS011;40529;52.172;10.548;2022-12-18T13:06:08;24.30;;;13.73;;
53062;SDS011;40529;52.172;10.548;2022-12-18T13:12:08;32.30;;;17.73;;
53062;SDS011;40529;52.172;10.548;2022-12-18T13:14:34;38.55;;;18.08;;
53062;SDS011;40529;52.172;10.548;2022-12-18T13:17:20;30.60;;;17.05;;
53062;SDS011;40529;52.172;10.548;2022-12-18T13:20:07;32.28;;;17.83;;
53062;SDS011;40529;52.172;10.548;2022-12-18T13:25:35;33.30;;;17.92;;
53062;SDS011;40529;52.172;10.548;2022-12-18T13:40:56;37.35;;;19.80;;
53062;SDS011;40529;52.172;10.548;2022-12-18T13:43:24;43.78;;;21.98;;
53062;SDS011;40529;52.172;10.548;2022-12-18T13:46:05;40.28;;;21.65;;
53062;SDS011;40529;52.172;10.548;2022-12-18T13:48:33;40.15;;;21.17;;
53062;SDS011;40529;52.172;10.548;2022-12-18T13:53:31;36.85;;;21.55;;
53062;SDS011;40529;52.172;10.548;2022-12-18T13:55:58;36.72;;;20.88;;
53062;SDS011;40529;52.172;10.548;2022-12-18T13:58:24;36.42;;;20.13;;
53062;SDS011;40529;52.172;10.548;2022-12-18T14:00:50;38.15;;;20.73;;
53062;SDS011;40529;52.172;10.548;2022-12-18T14:03:24;37.20;;;21.15;;
53062;SDS011;40529;52.172;10.548;2022-12-18T14:06:12;40.00;;;21.20;;
53062;SDS011;40529;52.172;10.548;2022-12-18T14:08:41;43.88;;;20.50;;
53062;SDS011;40529;52.172;10.548;2022-12-18T14:11:17;41.22;;;24.23;;
53062;SDS011;40529;52.172;10.548;2022-12-18T14:13:44;41.33;;;21.10;;
53062;SDS011;40529;52.172;10.548;2022-12-18T14:16:13;38.67;;;21.90;;
53062;SDS011;40529;52.172;10.548;2022-12-18T14:18:52;37.33;;;21.67;;
53062;SDS011;40529;52.172;10.548;2022-12-18T14:23:45;31.88;;;20.02;;
53062;SDS011;40529;52.172;10.548;2022-12-18T14:26:20;42.22;;;21.60;;
53062;SDS011;40529;52.172;10.548;2022-12-18T14:28:46;39.22;;;20.58;;
53062;SDS011;40529;52.172;10.548;2022-12-18T14:31:19;40.88;;;21.02;;
53062;SDS011;40529;52.172;10.548;2022-12-18T14:33:46;40.65;;;21.17;;
53062;SDS011;40529;52.172;10.548;2022-12-18T14:36:14;33.85;;;20.73;;
53062;SDS011;40529;52.172;10.548;2022-12-18T14:38:41;37.42;;;19.77;;
53062;SDS011;40529;52.172;10.548;2022-12-18T14:41:11;36.92;;;19.77;;
53062;SDS011;40529;52.172;10.548;2022-12-18T14:43:39;34.58;;;20.58;;
53062;SDS011;40529;52.172;10.548;2022-12-18T14:46:05;35.80;;;18.30;;
53062;SDS011;40529;52.172;10.548;2022-12-18T14:51:20;33.70;;;19.30;;
53062;SDS011;40529;52.172;10.548;2022-12-18T14:53:48;36.33;;;19.50;;
53062;SDS011;40529;52.172;10.548;2022-12-18T14:56:29;33.30;;;18.67;;
53062;SDS011;40529;52.172;10.548;2022-12-18T14:58:56;36.17;;;18.90;;
53062;SDS011;40529;52.172;10.548;2022-12-18T15:01:45;35.88;;;18.88;;
53062;SDS011;40529;52.172;10.548;2022-12-18T15:04:26;40.30;;;19.08;;
53062;SDS011;40529;52.172;10.548;2022-12-18T15:07:03;35.90;;;20.02;;
53062;SDS011;40529;52.172;10.548;2022-12-18T15:09:29;29.52;;;17.05;;
53062;SDS011;40529;52.172;10.548;2022-12-18T15:11:56;31.05;;;17.35;;
53062;SDS011;40529;52.172;10.548;2022-12-18T15:14:23;29.48;;;17.35;;
53062;SDS011;40529;52.172;10.548;2022-12-18T15:16:53;36.35;;;18.38;;
53062;SDS011;40529;52.172;10.548;2022-12-18T15:19:21;37.47;;;20.92;;
53062;SDS011;40529;52.172;10.548;2022-12-18T15:21:47;39.40;;;20.70;;
53062;SDS011;40529;52.172;10.548;2022-12-18T15:24:18;36.55;;;18.80;;
53062;SDS011;40529;52.172;10.548;2022-12-18T15:26:44;29.55;;;16.65;;
53062;SDS011;40529;52.172;10.548;2022-12-18T15:29:20;30.30;;;16.60;;
53062;SDS011;40529;52.172;10.548;2022-12-18T15:32:00;25.58;;;15.93;;
53062;SDS011;40529;52.172;10.548;2022-12-18T15:34:26;24.98;;;12.75;;
53062;SDS011;40529;52.172;10.548;2022-12-18T15:36:52;31.23;;;16.40;;
53062;SDS011;40529;52.172;10.548;2022-12-18T15:39:18;29.15;;;15.80;;
53062;SDS011;40529;52.172;10.548;2022-12-18T15:41:44;28.77;;;15.70;;
53062;SDS011;40529;52.172;10.548;2022-12-18T15:44:48;28.20;;;15.82;;
53062;SDS011;40529;52.172;10.548;2022-12-18T15:47:14;28.00;;;15.93;;
53062;SDS011;40529;52.172;10.548;2022-12-18T15:49:40;33.35;;;15.85;;
53062;SDS011;40529;52.172;10.548;2022-12-18T15:52:08;26.90;;;16.33;;
53062;SDS011;40529;52.172;10.548;2022-12-18T15:54:37;31.42;;;16.20;;
53062;SDS011;40529;52.172;10.548;2022-12-18T15:57:29;24.20;;;14.80;;
53062;SDS011;40529;52.172;10.548;2022-12-18T15:59:55;23.85;;;14.25;;
53062;SDS011;40529;52.172;10.548;2022-12-18T16:02:23;23.98;;;14.32;;
53062;SDS011;40529;52.172;10.548;2022-12-18T16:04:52;28.35;;;14.82;;
53062;SDS011;40529;52.172;10.548;2022-12-18T16:07:22;25.15;;;14.15;;
53062;SDS011;40529;52.172;10.548;2022-12-18T16:09:48;25.73;;;15.43;;
53062;SDS011;40529;52.172;10.548;2022-12-18T16:12:17;26.27;;;15.15;;
53062;SDS011;40529;52.172;10.548;2022-12-18T16:14:45;25.45;;;14.60;;
53062;SDS011;40529;52.172;10.548;2022-12-18T16:17:12;27.98;;;15.30;;
53062;SDS011;40529;52.172;10.548;2022-12-18T16:19:38;31.92;;;16.77;;
53062;SDS011;40529;52.172;10.548;2022-12-18T16:22:05;28.35;;;16.20;;
53062;SDS011;40529;52.172;10.548;2022-12-18T16:24:32;29.88;;;16.27;;
53062;SDS011;40529;52.172;10.548;2022-12-18T16:26:58;36.40;;;18.55;;
53062;SDS011;40529;52.172;10.548;2022-12-18T16:29:25;30.15;;;16.80;;
53062;SDS011;40529;52.172;10.548;2022-12-18T16:31:56;26.75;;;15.88;;
53062;SDS011;40529;52.172;10.548;2022-12-18T16:34:23;32.13;;;16.63;;
53062;SDS011;40529;52.172;10.548;2022-12-18T16:36:53;28.00;;;15.90;;